KGNC

Gaines County Airport

Seminole, Texas, USA
METAR KGNC 160155Z AUTO 21005KT 10SM CLR 08/M07 A3026 RMK AO2 T00761074
Observed Flight Rules
Dec-16 @ 01:55 UTC (24 minutes ago) Visual Flight Rules
Wind Visibility Clouds
210° at 5 knots 10 miles
  • Clear skies
Temperatures Readings
Current 8°C / 46°F
Dewpoint -7°C / 19°F
Humidity 34%
Altimeter 30.26" Hg
Pressure 1025 hPa
Elevation 1010
METAR KGNC 160155Z AUTO 21005KT 10SM CLR 08/M07 A3026 RMK AO2 T00761074
Observed Flight Rules
Dec-16 @ 01:55 UTC
(24 minutes ago)
VFR
Wind Visibility
210° at 5 knots 10 miles
Clouds
  • Clear skies
Temperature Dewpoint
8°C / 46°F -7°C / 19°F
Humidity Altimeter Pressure
34% 30.26" Hg 1025 hPa